Time;durP1;ratioP1;P1;durP2;ratioP2;P2;SDS_P1;SDS_P2;PMS_P1;PMS_P2;Temp;Humidity;BMP_temperature;BMP_pressure;BME280_temperature;BME280_humidity;BME280_pressure;Samples;Min_cycle;Max_cycle;Signal;HPM_P1;HPM_P2
2022/12/10 00:01:52;;;;;;;3.93;3.57;;;;;;;;;;4992503;28;20185;-81
2022/12/10 00:04:19;;;;;;;10.27;4.63;;;0.80;99.90;;;;;;4958936;28;20215;-80
2022/12/10 00:06:46;;;;;;;5.13;3.00;;;2.50;99.90;;;;;;4944040;29;20230;-80
2022/12/10 00:09:15;;;;;;;4.27;3.20;;;1.20;99.90;;;;;;4946009;29;20249;-79
2022/12/10 00:11:41;;;;;;;3.70;3.13;;;0.80;99.90;;;;;;4939205;29;20191;-81
2022/12/10 00:14:07;;;;;;;3.17;2.87;;;1.00;99.90;;;;;;4956525;29;20187;-81
2022/12/10 00:16:33;;;;;;;2.93;2.60;;;3.50;99.90;;;;;;4959442;28;20233;-80
2022/12/10 00:19:00;;;;;;;4.70;3.53;;;0.80;99.90;;;;;;4975592;28;20225;-81
2022/12/10 00:21:29;;;;;;;5.13;3.27;;;0.80;99.90;;;;;;4975385;28;20194;-80
2022/12/10 00:23:56;;;;;;;9.90;3.80;;;0.80;99.90;;;;;;4975383;28;20205;-81
2022/12/10 00:26:24;;;;;;;4.60;3.40;;;2.40;99.90;;;;;;4975463;28;20210;-81
2022/12/10 00:28:50;;;;;;;3.53;3.27;;;3.20;99.90;;;;;;4975309;28;20206;-81
2022/12/10 00:31:37;;;;;;;6.00;3.93;;;0.70;99.90;;;;;;4975047;28;20240;-81
2022/12/10 00:34:06;;;;;;;5.07;3.23;;;0.80;99.90;;;;;;4974974;28;20190;-81
2022/12/10 00:36:36;;;;;;;2.53;2.10;;;0.80;99.90;;;;;;4975279;28;20186;-82
2022/12/10 00:39:03;;;;;;;2.47;2.27;;;0.70;99.90;;;;;;4974672;28;20229;-82
2022/12/10 00:41:29;;;;;;;9.07;3.73;;;0.90;99.90;;;;;;4941963;28;20182;-82
2022/12/10 00:43:55;;;;;;;4.27;2.93;;;1.40;99.90;;;;;;4974664;28;20206;-82
2022/12/10 00:46:21;;;;;;;5.20;1.73;;;1.60;99.90;;;;;;4957963;28;20190;-82
2022/12/10 00:48:47;;;;;;;3.97;3.67;;;0.80;99.90;;;;;;4974651;28;20183;-83
2022/12/10 00:51:15;;;;;;;7.23;2.80;;;2.40;99.90;;;;;;4975271;28;20171;-82
2022/12/10 00:53:42;;;;;;;1.90;1.80;;;0.60;99.90;;;;;;4974481;28;20182;-83
2022/12/10 00:56:09;;;;;;;3.53;2.40;;;2.30;99.90;;;;;;4941711;28;20230;-83
2022/12/10 00:58:36;;;;;;;2.10;2.00;;;1.60;99.90;;;;;;4974905;28;20217;-83
2022/12/10 01:01:10;;;;;;;4.37;2.80;;;0.70;99.90;;;;;;4974972;28;20183;-82
2022/12/10 01:03:36;;;;;;;3.10;2.30;;;1.90;99.90;;;;;;4953309;28;20282;-84
2022/12/10 01:06:26;;;;;;;3.37;2.53;;;0.70;99.90;;;;;;4967906;28;20181;-82
2022/12/10 01:08:54;;;;;;;3.07;2.40;;;0.70;99.90;;;;;;4974499;28;20173;-83
2022/12/10 01:11:22;;;;;;;2.27;1.70;;;2.20;99.90;;;;;;4974854;28;20175;-82
2022/12/10 01:13:48;;;;;;;4.10;3.23;;;0.70;99.90;;;;;;4974280;28;20293;-83
2022/12/10 01:16:17;;;;;;;3.50;2.03;;;1.80;99.90;;;;;;4974597;28;20689;-83
2022/12/10 01:18:43;;;;;;;3.57;2.67;;;2.50;99.90;;;;;;4981204;28;20183;-82
2022/12/10 01:21:13;;;;;;;4.30;3.07;;;2.00;99.90;;;;;;4986246;28;20187;-82
2022/12/10 01:23:40;;;;;;;4.30;2.80;;;0.90;99.90;;;;;;4985886;28;20238;-82
2022/12/10 01:26:08;;;;;;;2.50;2.40;;;0.70;99.90;;;;;;4983902;28;20181;-82
2022/12/10 01:28:36;;;;;;;2.83;2.63;;;2.00;99.90;;;;;;4981796;28;20181;-82
2022/12/10 01:31:07;;;;;;;3.43;3.10;;;0.70;99.90;;;;;;4957398;28;20186;-82
2022/12/10 01:33:33;;;;;;;2.23;2.03;;;0.60;99.90;;;;;;4959495;28;20191;-81
2022/12/10 01:36:11;;;;;;;4.83;2.27;;;0.70;99.90;;;;;;4978048;28;20198;-83
2022/12/10 01:38:37;;;;;;;1.80;1.70;;;0.60;99.90;;;;;;4974749;28;20179;-81
2022/12/10 01:41:04;;;;;;;3.47;2.93;;;0.70;99.90;;;;;;4963286;29;20239;-82
2022/12/10 01:43:49;;;;;;;2.80;2.30;;;0.70;99.90;;;;;;4922848;29;20221;-82
2022/12/10 01:46:15;;;;;;;4.47;2.77;;;2.40;99.90;;;;;;4955131;29;20196;-80
2022/12/10 01:48:41;;;;;;;3.83;2.70;;;2.30;99.90;;;;;;4955086;29;20613;-82
2022/12/10 01:51:07;;;;;;;4.77;2.20;;;1.70;99.90;;;;;;4955950;28;20241;-80
2022/12/10 01:53:33;;;;;;;1.87;1.77;;;1.80;99.90;;;;;;4959232;29;20210;-81
2022/12/10 01:55:59;;;;;;;2.83;2.13;;;0.70;99.90;;;;;;4941700;29;20318;-81
2022/12/10 01:58:25;;;;;;;4.73;2.60;;;1.70;99.90;;;;;;4958793;29;20207;-80
2022/12/10 02:01:15;;;;;;;3.50;2.93;;;2.80;99.90;;;;;;4958488;29;20278;-80
2022/12/10 02:03:52;;;;;;;8.33;2.77;;;0.70;99.90;;;;;;4941361;29;20553;-84
2022/12/10 02:06:39;;;;;;;10.13;2.83;;;0.60;99.90;;;;;;4941734;29;20302;-80
2022/12/10 02:09:08;;;;;;;7.63;2.57;;;0.70;99.90;;;;;;4958222;29;20207;-80
2022/12/10 02:12:07;;;;;;;4.07;2.67;;;0.70;99.90;;;;;;4941676;29;20545;-81
2022/12/10 02:14:45;;;;;;;4.83;2.43;;;2.00;99.90;;;;;;4930790;29;20191;-81
2022/12/10 02:17:44;;;;;;;3.20;2.30;;;0.70;99.90;;;;;;4941513;29;20187;-81
2022/12/10 02:20:10;;;;;;;2.27;2.17;;;0.70;99.90;;;;;;4941097;29;20187;-81
2022/12/10 02:22:58;;;;;;;7.43;3.67;;;0.90;99.90;;;;;;4958394;29;20171;-81
2022/12/10 02:25:31;;;;;;;5.80;2.57;;;0.70;99.90;;;;;;4958201;29;20210;-81
2022/12/10 02:28:25;;;;;;;3.80;3.00;;;2.40;99.90;;;;;;4957742;29;20237;-81
2022/12/10 02:30:52;;;;;;;4.90;3.00;;;0.60;99.90;;;;;;4952862;29;20196;-81
2022/12/10 02:33:20;;;;;;;4.37;2.40;;;0.60;99.90;;;;;;4940777;29;20652;-81
2022/12/10 02:35:49;;;;;;;3.30;2.23;;;0.60;99.90;;;;;;4957868;29;20181;-82
2022/12/10 02:38:19;;;;;;;2.73;2.40;;;1.30;99.90;;;;;;4940316;29;20246;-81
2022/12/10 02:40:50;;;;;;;2.30;2.10;;;0.60;99.90;;;;;;4958237;29;20168;-85
2022/12/10 02:43:16;;;;;;;2.70;2.23;;;0.60;99.90;;;;;;4957830;29;20731;-81
2022/12/10 02:45:43;;;;;;;7.10;2.30;;;0.60;99.90;;;;;;4956664;29;20724;-81
2022/12/10 02:48:10;;;;;;;2.23;1.93;;;0.60;99.90;;;;;;4940370;29;20223;-81
2022/12/10 02:50:36;;;;;;;3.13;2.17;;;0.90;99.90;;;;;;4940521;29;20180;-81
2022/12/10 02:53:02;;;;;;;3.90;2.33;;;0.60;99.90;;;;;;4957180;29;20238;-81
2022/12/10 02:55:47;;;;;;;2.07;1.97;;;2.40;99.90;;;;;;4940759;29;20785;-81
2022/12/10 02:58:55;;;;;;;5.73;2.20;;;0.60;99.90;;;;;;4959600;28;20559;-81
2022/12/10 03:01:32;;;;;;;3.83;2.13;;;0.60;99.90;;;;;;4948851;29;20234;-81
2022/12/10 03:04:11;;;;;;;3.30;2.23;;;0.60;99.90;;;;;;4939844;29;20587;-81
2022/12/10 03:06:42;;;;;;;4.20;3.20;;;0.60;99.90;;;;;;4957593;29;20168;-81
2022/12/10 03:09:16;;;;;;;2.57;2.37;;;0.90;99.90;;;;;;4940102;29;20290;-81
2022/12/10 03:11:43;;;;;;;3.63;3.03;;;2.10;99.90;;;;;;4957520;29;20167;-81
2022/12/10 03:14:29;;;;;;;3.80;2.73;;;0.80;99.90;;;;;;4939865;29;21015;-81
2022/12/10 03:16:59;;;;;;;4.53;3.43;;;0.60;99.90;;;;;;4957148;29;20203;-81
2022/12/10 03:19:37;;;;;;;2.63;2.43;;;2.10;99.90;;;;;;4940293;29;20189;-81
2022/12/10 03:22:05;;;;;;;3.93;2.43;;;0.60;99.90;;;;;;4957061;29;20173;-81
2022/12/10 03:24:34;;;;;;;2.37;2.13;;;0.60;99.90;;;;;;4957317;29;20306;-81
2022/12/10 03:27:01;;;;;;;3.50;2.67;;;0.70;99.90;;;;;;4957149;29;20176;-81
2022/12/10 03:29:48;;;;;;;4.17;2.60;;;2.30;99.90;;;;;;4957275;29;20279;-81
2022/12/10 03:32:16;;;;;;;2.50;2.37;;;0.60;99.90;;;;;;4986675;28;20651;-81
2022/12/10 03:34:44;;;;;;;3.40;3.10;;;2.40;99.90;;;;;;4962586;28;20623;-81
2022/12/10 03:37:11;;;;;;;4.80;2.97;;;0.60;99.90;;;;;;4995334;28;20635;-81
2022/12/10 03:39:37;;;;;;;2.77;2.27;;;0.60;99.90;;;;;;4996152;28;20189;-81
2022/12/10 03:42:04;;;;;;;2.57;1.87;;;0.60;99.90;;;;;;4995092;28;20182;-81
2022/12/10 03:44:32;;;;;;;2.27;2.17;;;0.60;99.90;;;;;;4995692;28;20204;-81
2022/12/10 03:46:58;;;;;;;3.10;2.50;;;0.60;99.90;;;;;;4995262;28;20170;-81
2022/12/10 03:49:24;;;;;;;3.17;2.87;;;1.80;99.90;;;;;;4978355;28;20185;-81
2022/12/10 03:51:50;;;;;;;3.17;2.83;;;0.90;99.90;;;;;;4997863;28;20185;-81
2022/12/10 03:54:16;;;;;;;3.00;2.63;;;1.30;99.90;;;;;;4978201;28;20698;-81
2022/12/10 03:56:41;;;;;;;3.20;2.87;;;2.10;99.90;;;;;;4945445;28;20234;-81
2022/12/10 03:59:07;;;;;;;4.70;3.03;;;0.60;99.90;;;;;;4975743;28;20190;-82
2022/12/10 04:01:33;;;;;;;7.50;3.40;;;2.20;99.90;;;;;;4975914;28;20183;-82
2022/12/10 04:03:58;;;;;;;2.77;2.17;;;0.60;99.90;;;;;;4975505;28;20592;-83
2022/12/10 04:06:24;;;;;;;3.63;2.60;;;2.00;99.90;;;;;;4975465;28;20587;-81
2022/12/10 04:08:52;;;;;;;1.80;1.70;;;2.60;99.90;;;;;;4975793;28;20206;-81
2022/12/10 04:11:18;;;;;;;3.47;3.10;;;1.50;99.90;;;;;;4975313;28;20187;-81
2022/12/10 04:16:30;;;;;;;2.73;2.53;;;0.50;99.90;;;;;;4975748;28;20174;-82
2022/12/10 04:19:08;;;;;;;2.57;1.73;;;1.00;99.90;;;;;;4958199;28;20588;-81
2022/12/10 04:27:15;;;;;;;2.10;1.97;;;0.60;99.90;;;;;;4975039;28;20202;-82
2022/12/10 04:29:40;;;;;;;3.30;2.83;;;1.00;99.90;;;;;;4965811;28;20190;-82
2022/12/10 04:32:06;;;;;;;5.10;2.77;;;1.80;99.90;;;;;;4994468;28;20174;-82
2022/12/10 04:34:32;;;;;;;1.80;1.70;;;0.50;99.90;;;;;;4977159;28;20212;-82
2022/12/10 04:36:59;;;;;;;6.10;3.33;;;1.00;99.90;;;;;;4977019;28;20185;-81
2022/12/10 04:39:25;;;;;;;2.53;2.10;;;0.50;99.90;;;;;;4994106;28;20196;-81
2022/12/10 04:41:50;;;;;;;1.53;1.50;;;0.50;99.90;;;;;;4961030;28;20182;-81
2022/12/10 04:44:17;;;;;;;4.80;2.43;;;0.50;99.90;;;;;;4976749;28;20206;-81
2022/12/10 04:46:43;;;;;;;3.67;3.23;;;0.50;99.90;;;;;;4976988;28;20209;-81
2022/12/10 04:49:09;;;;;;;3.30;3.07;;;0.60;99.90;;;;;;4993853;28;20185;-82
2022/12/10 04:51:34;;;;;;;3.73;3.10;;;0.90;99.90;;;;;;4976878;28;20186;-81
2022/12/10 04:54:01;;;;;;;4.10;2.90;;;1.60;99.90;;;;;;4994213;28;20264;-84
2022/12/10 04:56:27;;;;;;;3.70;3.03;;;0.50;99.90;;;;;;4994295;28;20225;-80
2022/12/10 04:58:54;;;;;;;1.70;1.60;;;1.10;99.90;;;;;;4994335;28;20301;-81
2022/12/10 05:01:20;;;;;;;4.70;3.70;;;2.10;99.90;;;;;;4994059;28;20185;-81
2022/12/10 05:03:45;;;;;;;2.93;2.40;;;0.80;99.90;;;;;;4994138;28;20217;-81
2022/12/10 05:06:13;;;;;;;5.30;2.53;;;0.50;99.90;;;;;;4976617;28;20178;-81
2022/12/10 05:08:40;;;;;;;4.33;2.67;;;0.40;99.90;;;;;;4970470;28;20265;-81
2022/12/10 05:11:09;;;;;;;3.03;2.73;;;1.50;99.90;;;;;;4974422;28;20653;-82
2022/12/10 05:13:35;;;;;;;5.27;3.40;;;0.50;99.90;;;;;;4974705;28;20245;-81
2022/12/10 05:16:05;;;;;;;4.60;3.73;;;1.70;99.90;;;;;;4969829;28;20186;-81
2022/12/10 05:18:31;;;;;;;11.70;4.90;;;0.50;99.90;;;;;;4951044;28;20639;-81
2022/12/10 05:21:02;;;;;;;4.73;4.27;;;0.50;99.90;;;;;;4952598;28;20245;-82
2022/12/10 05:23:28;;;;;;;5.10;4.17;;;0.50;99.90;;;;;;4947448;28;20577;-82
2022/12/10 05:26:04;;;;;;;8.70;5.90;;;0.50;99.90;;;;;;4952385;28;20197;-81
2022/12/10 05:28:32;;;;;;;6.73;5.03;;;0.50;99.90;;;;;;4950577;28;20553;-80
2022/12/10 05:30:58;;;;;;;4.97;4.17;;;0.50;99.90;;;;;;4965035;28;20211;-82
2022/12/10 05:33:24;;;;;;;18.83;9.90;;;2.10;99.90;;;;;;4930280;28;20194;-82
2022/12/10 05:35:55;;;;;;;8.93;3.87;;;0.50;99.90;;;;;;4946879;28;20186;-83
2022/12/10 05:38:21;;;;;;;7.13;4.43;;;1.20;99.90;;;;;;4945887;28;20270;-82
2022/12/10 05:40:47;;;;;;;9.83;6.57;;;1.00;99.90;;;;;;4948072;28;20273;-81
2022/12/10 05:43:12;;;;;;;6.93;4.23;;;2.40;99.90;;;;;;4943156;28;20666;-81
2022/12/10 05:45:38;;;;;;;5.90;4.33;;;1.60;99.90;;;;;;4917164;28;20241;-82
2022/12/10 05:48:04;;;;;;;11.77;4.70;;;1.60;99.90;;;;;;4965161;28;20183;-82
2022/12/10 05:50:31;;;;;;;8.07;3.40;;;0.40;99.90;;;;;;4965529;28;20199;-82
2022/12/10 05:52:57;;;;;;;11.87;4.70;;;0.50;99.90;;;;;;4929950;28;20219;-82
2022/12/10 05:55:22;;;;;;;11.97;4.40;;;1.30;99.90;;;;;;4919676;28;20715;-82
2022/12/10 05:57:48;;;;;;;2.87;2.67;;;2.00;99.90;;;;;;4963537;28;20257;-82
2022/12/10 06:00:14;;;;;;;4.37;3.33;;;2.00;99.90;;;;;;4949791;28;20198;-82
2022/12/10 06:02:40;;;;;;;5.17;3.33;;;0.50;99.90;;;;;;4951905;28;20187;-82
2022/12/10 06:05:05;;;;;;;4.67;3.37;;;0.50;99.90;;;;;;4957389;28;20288;-82
2022/12/10 06:07:31;;;;;;;5.30;3.57;;;0.50;99.90;;;;;;4974165;28;20746;-82
2022/12/10 06:09:57;;;;;;;24.63;5.03;;;0.50;99.90;;;;;;4955227;28;20186;-81
2022/12/10 06:12:22;;;;;;;4.43;2.93;;;1.70;99.90;;;;;;4971927;28;20211;-82
2022/12/10 06:14:48;;;;;;;2.77;2.63;;;2.70;99.90;;;;;;4953850;28;20233;-82
2022/12/10 06:17:13;;;;;;;8.10;3.73;;;0.60;99.90;;;;;;4965479;28;20230;-82
2022/12/10 06:19:39;;;;;;;9.47;5.07;;;0.50;99.90;;;;;;4940775;28;20194;-82
2022/12/10 06:22:05;;;;;;;6.03;3.87;;;0.50;99.90;;;;;;4954923;28;20190;-83
2022/12/10 06:24:30;;;;;;;9.17;5.17;;;0.50;99.90;;;;;;4929569;28;20206;-84
2022/12/10 06:26:56;;;;;;;6.13;4.30;;;0.50;99.90;;;;;;4968900;28;20676;-84
2022/12/10 06:29:22;;;;;;;8.53;4.03;;;1.90;99.90;;;;;;4964977;28;20242;-85
2022/12/10 06:31:47;;;;;;;12.63;4.70;;;2.90;99.90;;;;;;4951025;28;20214;-83
2022/12/10 06:34:13;;;;;;;17.17;5.13;;;0.50;99.90;;;;;;4935249;28;20664;-86
2022/12/10 06:36:38;;;;;;;7.57;4.67;;;2.50;99.90;;;;;;4967341;28;20219;-83
2022/12/10 06:39:04;;;;;;;6.03;4.87;;;0.50;99.90;;;;;;4950350;28;20663;-83
2022/12/10 06:41:30;;;;;;;15.60;5.43;;;0.50;99.90;;;;;;4975557;28;20197;-83
2022/12/10 06:43:58;;;;;;;14.73;7.00;;;2.50;99.90;;;;;;4941940;28;20214;-83
2022/12/10 06:46:27;;;;;;;8.37;5.33;;;0.70;99.90;;;;;;4970316;28;20214;-83
2022/12/10 06:48:53;;;;;;;11.13;4.63;;;1.50;99.90;;;;;;4974979;28;20690;-83
2022/12/10 06:51:18;;;;;;;10.13;5.07;;;0.60;99.90;;;;;;4980737;28;20195;-82
2022/12/10 06:53:45;;;;;;;9.10;4.20;;;2.30;99.90;;;;;;4971155;28;20195;-83
2022/12/10 06:56:17;;;;;;;3.63;3.30;;;0.90;99.90;;;;;;4975912;28;20185;-81
2022/12/10 06:58:43;;;;;;;18.10;4.80;;;0.80;99.90;;;;;;4950235;28;20197;-82
2022/12/10 07:01:15;;;;;;;8.67;5.80;;;0.50;99.90;;;;;;4962693;28;20218;-82
2022/12/10 07:03:41;;;;;;;7.20;4.73;;;0.60;99.90;;;;;;4980487;28;20202;-83
2022/12/10 07:06:08;;;;;;;12.20;3.80;;;0.90;99.90;;;;;;4952345;29;20194;-83
2022/12/10 07:08:34;;;;;;;9.67;5.00;;;0.60;99.90;;;;;;4939987;29;20240;-82
2022/12/10 07:11:03;;;;;;;7.33;4.40;;;0.60;99.90;;;;;;4960265;28;20182;-82
2022/12/10 07:13:29;;;;;;;15.50;5.47;;;2.30;99.90;;;;;;4994919;28;20207;-81
2022/12/10 07:15:55;;;;;;;5.50;3.07;;;2.30;99.90;;;;;;4958814;28;20182;-82
2022/12/10 07:18:20;;;;;;;10.23;5.23;;;0.60;99.90;;;;;;4987194;28;20533;-82
2022/12/10 07:20:46;;;;;;;6.07;4.00;;;0.60;99.90;;;;;;4978570;28;20581;-82
2022/12/10 07:23:12;;;;;;;13.37;5.17;;;0.60;99.90;;;;;;4995802;28;20573;-81
2022/12/10 07:25:37;;;;;;;10.60;5.03;;;1.20;99.90;;;;;;4963905;28;20235;-82
2022/12/10 07:28:03;;;;;;;5.17;4.00;;;2.10;99.90;;;;;;4966766;28;20183;-81
2022/12/10 07:30:28;;;;;;;7.87;4.97;;;0.60;99.90;;;;;;4948825;28;20213;-81
2022/12/10 07:32:54;;;;;;;10.93;4.60;;;0.60;99.90;;;;;;4976672;28;20174;-81
2022/12/10 07:35:20;;;;;;;9.57;4.87;;;1.50;99.90;;;;;;4962974;28;20652;-82
2022/12/10 07:37:45;;;;;;;7.10;5.37;;;2.70;99.90;;;;;;4984346;28;20183;-81
2022/12/10 07:40:11;;;;;;;8.03;5.30;;;2.90;99.90;;;;;;4974153;28;20183;-81
2022/12/10 07:42:37;;;;;;;4.13;3.73;;;0.60;99.90;;;;;;4956272;29;20597;-82
2022/12/10 07:45:03;;;;;;;15.83;6.53;;;0.60;99.90;;;;;;4953130;28;20195;-81
2022/12/10 07:47:29;;;;;;;6.00;4.67;;;0.60;99.90;;;;;;4977188;28;20658;-82
2022/12/10 07:49:54;;;;;;;12.27;5.17;;;0.60;99.90;;;;;;5011288;28;20184;-82
2022/12/10 07:52:20;;;;;;;9.93;5.40;;;;;;;;;;4999063;28;20193;-81
2022/12/10 07:54:46;;;;;;;3.57;2.90;;;0.70;99.90;;;;;;4977844;28;20222;-80
2022/12/10 07:57:13;;;;;;;15.90;5.30;;;1.20;99.90;;;;;;4961104;29;20292;-81
2022/12/10 07:59:39;;;;;;;8.83;4.43;;;1.00;99.90;;;;;;4964435;29;20194;-81
2022/12/10 08:02:05;;;;;;;9.17;5.43;;;1.20;99.90;;;;;;4908429;29;20183;-81
2022/12/10 08:04:31;;;;;;;4.23;3.57;;;0.70;99.90;;;;;;4963801;29;20242;-84
2022/12/10 08:06:57;;;;;;;17.70;7.03;;;0.60;99.90;;;;;;4959906;29;20211;-81
2022/12/10 08:09:23;;;;;;;6.23;2.83;;;1.00;99.90;;;;;;4946992;28;20198;-84
2022/12/10 08:11:48;;;;;;;10.87;5.20;;;0.60;99.90;;;;;;4993186;28;20193;-82
2022/12/10 08:14:14;;;;;;;8.13;5.43;;;1.30;99.90;;;;;;4980438;28;20194;-82
2022/12/10 08:16:39;;;;;;;6.70;4.00;;;2.10;99.90;;;;;;5003605;28;20175;-82
2022/12/10 08:19:05;;;;;;;8.20;5.23;;;;;;;;;;4945781;28;20273;-83
2022/12/10 08:21:32;;;;;;;10.13;4.80;;;0.60;99.90;;;;;;4947715;28;20186;-82
2022/12/10 08:23:59;;;;;;;7.20;3.80;;;1.00;99.90;;;;;;4947496;28;20236;-82
2022/12/10 08:26:29;;;;;;;10.67;6.70;;;0.60;99.90;;;;;;4951617;28;20190;-84
2022/12/10 08:28:56;;;;;;;4.40;3.90;;;0.60;99.90;;;;;;4965886;28;20719;-83
2022/12/10 08:31:24;;;;;;;9.83;5.17;;;0.60;99.90;;;;;;4949265;28;20645;-85
2022/12/10 08:33:49;;;;;;;6.97;4.37;;;0.80;99.90;;;;;;4963827;28;20186;-83
2022/12/10 08:36:18;;;;;;;9.83;4.87;;;0.60;99.90;;;;;;4948220;28;20183;-84
2022/12/10 08:38:44;;;;;;;5.90;4.63;;;0.60;99.90;;;;;;4963593;28;20179;-84
2022/12/10 08:41:21;;;;;;;7.83;4.33;;;0.50;99.90;;;;;;4931184;28;20202;-84
2022/12/10 08:43:48;;;;;;;14.27;6.77;;;0.50;99.90;;;;;;4964674;28;20199;-84
2022/12/10 08:46:15;;;;;;;10.13;6.10;;;0.60;99.90;;;;;;4949716;28;20632;-82
2022/12/10 08:48:41;;;;;;;23.60;5.13;;;0.60;99.90;;;;;;4970851;28;20179;-85
2022/12/10 08:51:08;;;;;;;4.67;4.17;;;0.50;99.90;;;;;;4962111;28;20179;-81
2022/12/10 08:53:34;;;;;;;7.57;5.27;;;0.60;99.90;;;;;;4960135;28;20195;-84
2022/12/10 08:56:00;;;;;;;5.13;3.60;;;0.60;99.90;;;;;;4976387;28;20197;-83
2022/12/10 08:58:26;;;;;;;8.60;4.23;;;0.60;99.90;;;;;;4956964;29;20556;-82
2022/12/10 09:00:52;;;;;;;5.47;4.73;;;0.60;99.90;;;;;;4937504;29;20438;-82
2022/12/10 09:03:18;;;;;;;10.70;4.23;;;1.80;99.90;;;;;;4933033;29;20191;-82
2022/12/10 09:05:44;;;;;;;10.30;5.43;;;0.60;99.90;;;;;;4944266;29;20235;-84
2022/12/10 09:08:10;;;;;;;9.10;5.50;;;0.60;99.90;;;;;;4931201;29;20186;-83
2022/12/10 09:10:38;;;;;;;3.17;2.33;;;0.50;99.90;;;;;;4952446;29;20218;-83
2022/12/10 09:13:04;;;;;;;7.83;5.57;;;;;;;;;;4946760;29;20258;-84
2022/12/10 09:15:30;;;;;;;11.47;5.47;;;0.60;99.90;;;;;;4946993;29;20613;-83
2022/12/10 09:17:55;;;;;;;9.93;5.07;;;1.70;99.90;;;;;;4918470;29;20188;-83
2022/12/10 09:20:21;;;;;;;3.40;3.07;;;1.50;99.90;;;;;;4900487;29;20198;-84
2022/12/10 09:22:47;;;;;;;6.20;4.03;;;0.70;99.90;;;;;;4938681;29;20184;-83
2022/12/10 09:25:15;;;;;;;6.43;4.97;;;2.40;99.90;;;;;;4944508;29;20273;-84
2022/12/10 09:27:41;;;;;;;6.00;3.40;;;3.50;99.90;;;;;;4931139;29;20190;-84
2022/12/10 09:30:08;;;;;;;6.87;3.27;;;0.90;99.90;;;;;;4952830;29;20183;-84
2022/12/10 09:32:33;;;;;;;8.67;4.50;;;0.70;99.90;;;;;;4929873;29;20186;-83
2022/12/10 09:35:03;;;;;;;7.93;3.83;;;0.90;99.90;;;;;;4917767;29;20196;-84
2022/12/10 09:37:29;;;;;;;12.93;6.93;;;0.70;99.90;;;;;;4912541;29;20195;-84
2022/12/10 09:39:54;;;;;;;6.53;4.73;;;0.70;99.90;;;;;;4912964;29;20604;-84
2022/12/10 09:42:37;;;;;;;11.27;4.00;;;0.70;99.90;;;;;;4910816;29;20226;-84
2022/12/10 09:45:18;;;;;;;10.67;5.67;;;0.70;99.90;;;;;;4946211;29;20300;-84
2022/12/10 09:48:20;;;;;;;3.50;3.03;;;0.70;99.90;;;;;;4928693;29;20188;-84
2022/12/10 09:51:04;;;;;;;5.23;4.20;;;0.70;99.90;;;;;;4943790;29;20210;-84
2022/12/10 09:53:31;;;;;;;10.60;4.27;;;0.70;99.90;;;;;;4928935;29;20184;-84
2022/12/10 09:55:58;;;;;;;7.20;4.13;;;0.80;99.90;;;;;;4949598;29;20183;-83
2022/12/10 09:58:26;;;;;;;10.40;6.83;;;0.70;99.90;;;;;;4971756;28;20361;-86
2022/12/10 10:01:02;;;;;;;9.50;5.27;;;4.10;99.90;;;;;;4964090;28;20270;-83
2022/12/10 10:03:31;;;;;;;8.80;5.00;;;3.00;99.90;;;;;;4948051;28;20188;-86
2022/12/10 10:05:57;;;;;;;6.23;4.13;;;0.70;99.90;;;;;;4942618;28;20187;-84
2022/12/10 10:08:37;;;;;;;12.80;6.00;;;0.70;99.90;;;;;;4945955;28;20182;-85
2022/12/10 10:11:04;;;;;;;17.07;6.97;;;0.70;99.90;;;;;;4949600;28;20207;-84
2022/12/10 10:13:38;;;;;;;10.43;4.53;;;0.60;99.90;;;;;;4963779;28;20667;-83
2022/12/10 10:16:25;;;;;;;7.40;4.37;;;0.50;99.90;;;;;;4950087;28;20182;-84
2022/12/10 10:19:29;;;;;;;9.90;5.57;;;0.60;99.90;;;;;;4951502;28;20282;-84
2022/12/10 10:21:54;;;;;;;5.37;4.47;;;0.70;99.90;;;;;;4904389;29;20292;-85
2022/12/10 10:24:25;;;;;;;8.40;5.70;;;0.90;99.90;;;;;;4927657;28;20309;-84
2022/12/10 10:26:57;;;;;;;7.33;5.00;;;0.70;99.90;;;;;;4966874;28;20194;-83
2022/12/10 10:29:26;;;;;;;5.40;4.17;;;0.60;99.90;;;;;;4969213;28;20360;-82
2022/12/10 10:32:30;;;;;;;17.63;5.57;;;1.40;99.90;;;;;;4947514;28;20175;-83
2022/12/10 10:34:59;;;;;;;7.37;4.63;;;0.60;99.90;;;;;;4932093;28;20676;-84
2022/12/10 10:37:33;;;;;;;11.07;5.97;;;2.20;99.90;;;;;;4965030;28;20174;-84
2022/12/10 10:39:59;;;;;;;6.47;3.93;;;;;;;;;;4971617;28;20667;-84
2022/12/10 10:42:45;;;;;;;6.60;4.50;;;0.60;99.90;;;;;;4964050;28;20261;-84
2022/12/10 10:45:29;;;;;;;18.23;6.33;;;0.60;99.90;;;;;;4950768;28;20211;-85
2022/12/10 10:48:12;;;;;;;8.37;5.83;;;1.20;99.90;;;;;;4976287;28;20179;-83
2022/12/10 10:50:47;;;;;;;14.43;7.07;;;0.60;99.90;;;;;;4975870;28;20205;-83
2022/12/10 10:53:37;;;;;;;21.90;5.60;;;0.60;99.90;;;;;;4966272;28;20162;-82
2022/12/10 10:56:19;;;;;;;16.73;6.93;;;0.60;99.90;;;;;;4963313;28;20683;-83
2022/12/10 10:59:26;;;;;;;6.70;4.60;;;1.50;99.90;;;;;;4972257;28;20632;-86
2022/12/10 11:02:02;;;;;;;3.57;3.27;;;0.60;99.90;;;;;;4970732;28;20632;-83
2022/12/10 11:04:32;;;;;;;10.20;4.70;;;0.80;99.90;;;;;;4973317;28;20318;-84
2022/12/10 11:07:01;;;;;;;5.53;4.70;;;0.60;99.90;;;;;;4953866;28;20226;-83
2022/12/10 11:09:33;;;;;;;7.10;3.87;;;1.90;99.90;;;;;;4953231;28;20194;-83
2022/12/10 11:12:20;;;;;;;6.07;4.50;;;0.50;99.90;;;;;;4972734;28;20431;-83
2022/12/10 11:14:46;;;;;;;9.50;4.30;;;0.50;99.90;;;;;;4969241;28;20273;-84
2022/12/10 11:17:14;;;;;;;7.83;5.03;;;3.10;99.90;;;;;;4967653;28;20257;-85
2022/12/10 11:20:15;;;;;;;5.87;3.30;;;0.60;99.90;;;;;;4966033;28;20275;-81
2022/12/10 11:22:50;;;;;;;4.07;2.70;;;0.50;99.90;;;;;;4947350;28;20219;-84
2022/12/10 11:25:15;;;;;;;4.30;2.97;;;0.50;99.90;;;;;;4962363;28;20198;-81
2022/12/10 11:28:00;;;;;;;3.50;2.87;;;0.50;99.90;;;;;;4931492;28;20193;-83
2022/12/10 11:30:28;;;;;;;5.53;3.37;;;0.50;99.90;;;;;;4952030;28;20193;-85
2022/12/10 11:33:22;;;;;;;4.27;3.87;;;0.90;99.90;;;;;;4982859;28;20183;-83
2022/12/10 11:36:01;;;;;;;2.57;2.40;;;0.50;99.90;;;;;;4955926;28;20338;-83
2022/12/10 11:38:41;;;;;;;6.43;3.83;;;0.60;99.90;;;;;;4949083;28;20245;-83
2022/12/10 11:41:39;;;;;;;8.93;4.07;;;0.90;99.90;;;;;;4947545;29;20178;-83
2022/12/10 11:44:11;;;;;;;4.33;3.93;;;0.60;99.90;;;;;;4966457;28;20238;-84
2022/12/10 11:46:56;;;;;;;3.23;2.33;;;0.60;99.90;;;;;;4945283;28;20198;-83
2022/12/10 11:49:46;;;;;;;4.03;3.63;;;2.10;99.90;;;;;;4965173;28;20638;-84
2022/12/10 11:52:24;;;;;;;6.83;3.63;;;0.60;99.90;;;;;;4964710;28;20303;-85
2022/12/10 11:55:07;;;;;;;10.53;4.07;;;0.50;99.90;;;;;;4963397;28;20257;-85
2022/12/10 11:58:02;;;;;;;4.70;3.50;;;0.60;99.90;;;;;;4975059;28;20317;-84
2022/12/10 12:00:52;;;;;;;4.50;3.77;;;0.50;99.90;;;;;;4946673;28;20257;-84
2022/12/10 12:03:43;;;;;;;12.47;5.57;;;0.50;99.90;;;;;;4960233;28;20631;-86
2022/12/10 12:06:17;;;;;;;7.67;3.83;;;0.50;99.90;;;;;;4960378;28;20625;-85
2022/12/10 12:09:05;;;;;;;6.17;4.20;;;0.50;99.90;;;;;;4962280;28;20650;-84
2022/12/10 12:11:49;;;;;;;6.23;4.47;;;1.60;99.90;;;;;;4946834;28;20226;-84
2022/12/10 12:14:25;;;;;;;3.10;2.90;;;0.50;99.90;;;;;;4952493;28;20253;-85
2022/12/10 12:17:14;;;;;;;7.67;4.87;;;2.50;99.90;;;;;;4950474;28;20188;-84
2022/12/10 12:19:44;;;;;;;9.20;4.60;;;0.50;99.90;;;;;;4954209;28;20219;-83
2022/12/10 12:22:23;;;;;;;9.20;6.20;;;0.50;99.90;;;;;;4947733;28;20182;-84
2022/12/10 12:24:50;;;;;;;3.70;2.40;;;0.50;99.90;;;;;;4961133;28;20301;-85
2022/12/10 12:27:26;;;;;;;5.80;3.33;;;0.50;99.90;;;;;;4929887;28;20342;-84
2022/12/10 12:30:18;;;;;;;4.37;3.10;;;0.40;99.90;;;;;;4967459;28;20185;-83
2022/12/10 12:33:05;;;;;;;20.23;7.50;;;0.50;99.90;;;;;;4948826;28;20194;-83
2022/12/10 12:35:44;;;;;;;16.60;6.13;;;0.50;99.90;;;;;;4949676;28;20247;-83
2022/12/10 12:38:39;;;;;;;4.37;3.53;;;0.50;99.90;;;;;;4963247;28;20200;-85
2022/12/10 12:41:16;;;;;;;5.67;3.30;;;0.50;99.90;;;;;;4953822;28;20229;-85
2022/12/10 12:44:03;;;;;;;3.13;2.93;;;0.50;99.90;;;;;;4968714;28;20213;-83
2022/12/10 12:46:41;;;;;;;5.10;4.00;;;0.50;99.90;;;;;;4959702;28;20193;-83
2022/12/10 12:49:24;;;;;;;5.03;3.57;;;0.50;99.90;;;;;;4967471;28;20182;-83
2022/12/10 12:52:38;;;;;;;5.90;3.27;;;0.60;99.90;;;;;;4952141;28;20223;-84
2022/12/10 12:55:29;;;;;;;12.30;6.83;;;0.50;99.90;;;;;;4950195;28;20190;-82
2022/12/10 12:58:03;;;;;;;10.20;5.80;;;0.50;99.90;;;;;;4948160;28;20265;-82
2022/12/10 13:00:35;;;;;;;16.87;7.60;;;0.50;99.90;;;;;;4967453;28;20543;-85
2022/12/10 13:03:37;;;;;;;6.03;5.37;;;0.60;99.90;;;;;;4973368;28;20186;-85
2022/12/10 13:06:33;;;;;;;10.40;7.83;;;0.20;99.90;;;;;;4975919;28;20217;-83
2022/12/10 13:09:14;;;;;;;7.30;3.53;;;0.50;99.90;;;;;;4940666;28;20281;-83
2022/12/10 13:11:46;;;;;;;12.27;7.20;;;0.50;99.90;;;;;;4959135;28;20254;-82
2022/12/10 13:14:27;;;;;;;9.00;5.43;;;0.50;99.90;;;;;;4952028;28;20186;-82
2022/12/10 13:17:01;;;;;;;10.23;7.03;;;0.50;99.90;;;;;;4954877;28;20217;-85
2022/12/10 13:19:30;;;;;;;9.73;6.10;;;0.50;99.90;;;;;;4976282;28;20409;-84
2022/12/10 13:22:04;;;;;;;8.33;4.63;;;0.50;99.90;;;;;;4973051;28;20187;-83
2022/12/10 13:24:45;;;;;;;5.90;4.80;;;0.50;99.90;;;;;;4972442;28;20221;-83
2022/12/10 13:27:19;;;;;;;8.43;4.83;;;0.40;99.90;;;;;;4967503;28;20177;-83
2022/12/10 13:30:02;;;;;;;4.67;4.33;;;1.30;99.90;;;;;;4964106;28;20179;-83